createdAt,value
2023-04-20T00:00:50.085Z,3.80
2023-04-20T00:02:51.834Z,3.00
2023-04-20T00:04:53.806Z,5.30
2023-04-20T00:06:58.707Z,2.83
2023-04-20T00:09:01.260Z,2.45
2023-04-20T00:11:02.948Z,3.35
2023-04-20T00:13:04.654Z,3.97
2023-04-20T00:15:07.021Z,3.47
2023-04-20T00:17:08.736Z,2.53
2023-04-20T00:19:10.637Z,3.15
2023-04-20T00:21:12.464Z,4.97
2023-04-20T00:23:14.142Z,2.28
2023-04-20T00:25:15.910Z,2.42
2023-04-20T00:27:18.045Z,1.67
2023-04-20T00:29:19.739Z,2.38
2023-04-20T00:31:21.586Z,4.88
2023-04-20T00:33:23.286Z,4.68
2023-04-20T00:35:25.005Z,3.15
2023-04-20T00:37:26.814Z,2.60
2023-04-20T00:39:28.469Z,2.22
2023-04-20T00:41:30.273Z,2.25
2023-04-20T00:43:32.015Z,2.08
2023-04-20T00:45:33.638Z,2.10
2023-04-20T00:47:35.728Z,2.92
2023-04-20T00:49:37.553Z,2.22
2023-04-20T00:51:39.791Z,2.10
2023-04-20T00:53:42.011Z,1.83
2023-04-20T00:55:44.367Z,3.15
2023-04-20T00:57:46.256Z,4.28
2023-04-20T00:59:48.237Z,2.13
2023-04-20T01:01:50.046Z,3.17
2023-04-20T01:03:51.865Z,3.45
2023-04-20T01:05:53.804Z,7.28
2023-04-20T01:07:55.789Z,2.47
2023-04-20T01:09:57.367Z,3.47
2023-04-20T01:11:59.002Z,2.00
2023-04-20T01:14:01.380Z,2.58
2023-04-20T01:16:03.678Z,2.90
2023-04-20T01:18:05.916Z,2.85
2023-04-20T01:20:09.388Z,3.33
2023-04-20T01:22:18.181Z,2.10
2023-04-20T01:24:19.833Z,2.33
2023-04-20T01:26:23.890Z,3.53
2023-04-20T01:28:26.821Z,5.38
2023-04-20T01:30:29.104Z,2.13
2023-04-20T01:32:31.758Z,3.20
2023-04-20T01:34:33.541Z,3.42
2023-04-20T01:36:35.141Z,2.15
2023-04-20T01:38:37.085Z,2.20
2023-04-20T01:40:39.335Z,2.72
2023-04-20T01:42:41.038Z,1.75
2023-04-20T01:44:42.852Z,2.20
2023-04-20T01:46:44.541Z,2.15
2023-04-20T01:48:46.239Z,2.67
2023-04-20T01:50:52.252Z,4.53
2023-04-20T01:52:53.981Z,2.05
2023-04-20T01:54:55.736Z,2.65
2023-04-20T01:56:57.812Z,2.30
2023-04-20T01:58:59.589Z,3.10
2023-04-20T02:01:02.701Z,3.03
2023-04-20T02:03:04.619Z,2.30
2023-04-20T02:05:06.758Z,2.03
2023-04-20T02:07:08.365Z,2.22
2023-04-20T02:09:10.210Z,3.15
2023-04-20T02:11:11.853Z,2.58
2023-04-20T02:13:13.484Z,2.13
2023-04-20T02:15:15.155Z,2.15
2023-04-20T02:17:17.099Z,2.47
2023-04-20T02:19:18.995Z,2.50
2023-04-20T02:21:21.148Z,1.80
2023-04-20T02:23:22.767Z,3.70
2023-04-20T02:25:24.543Z,3.83
2023-04-20T02:27:26.214Z,2.00
2023-04-20T02:29:27.857Z,1.83
2023-04-20T02:31:29.568Z,3.90
2023-04-20T02:33:31.315Z,4.13
2023-04-20T02:35:32.986Z,2.53
2023-04-20T02:37:34.816Z,2.28
2023-04-20T02:39:36.437Z,3.88
2023-04-20T02:41:38.032Z,3.58
2023-04-20T02:43:40.354Z,1.90
2023-04-20T02:45:41.993Z,2.10
2023-04-20T02:47:43.773Z,1.67
2023-04-20T02:49:45.497Z,2.08
2023-04-20T02:51:47.148Z,2.58
2023-04-20T02:53:48.983Z,1.85
2023-04-20T02:55:50.668Z,3.83
2023-04-20T02:57:52.342Z,3.13
2023-04-20T02:59:54.095Z,3.45
2023-04-20T03:01:55.829Z,1.98
2023-04-20T03:03:57.809Z,2.70
2023-04-20T03:05:59.688Z,1.80
2023-04-20T03:08:01.592Z,2.80
2023-04-20T03:10:04.377Z,2.15
2023-04-20T03:12:06.590Z,3.40
2023-04-20T03:14:08.260Z,3.17
2023-04-20T03:16:09.947Z,5.47
2023-04-20T03:18:11.900Z,3.00
2023-04-20T03:20:14.788Z,7.38
2023-04-20T03:22:19.166Z,2.20
2023-04-20T03:24:20.960Z,6.07
2023-04-20T03:26:23.640Z,4.93
2023-04-20T03:28:25.371Z,2.47
2023-04-20T03:30:27.410Z,5.65
2023-04-20T03:32:30.819Z,4.30
2023-04-20T03:34:34.276Z,11.30
2023-04-20T03:36:36.476Z,4.88
2023-04-20T03:38:38.127Z,7.03
2023-04-20T03:40:39.765Z,7.00
2023-04-20T03:42:41.746Z,2.60
2023-04-20T03:44:43.406Z,6.70
2023-04-20T03:46:45.290Z,1.95
2023-04-20T03:48:46.969Z,3.15
2023-04-20T03:50:48.636Z,5.90
2023-04-20T03:52:50.292Z,3.78
2023-04-20T03:54:51.906Z,3.03
2023-04-20T03:56:53.583Z,10.82
2023-04-20T03:58:55.313Z,2.63
2023-04-20T04:01:04.479Z,5.68
2023-04-20T04:03:06.281Z,3.42
2023-04-20T04:05:08.644Z,2.40
2023-04-20T04:07:10.373Z,2.28
2023-04-20T04:09:12.043Z,1.65
2023-04-20T04:11:13.839Z,2.95
2023-04-20T04:13:15.489Z,3.28
2023-04-20T04:15:19.396Z,1.95
2023-04-20T04:17:21.089Z,1.80
2023-04-20T04:19:22.728Z,2.40
2023-04-20T04:21:24.449Z,2.20
2023-04-20T04:23:26.348Z,4.15
2023-04-20T04:25:28.273Z,3.33
2023-04-20T04:27:34.562Z,3.78
2023-04-20T04:29:38.727Z,5.10
2023-04-20T04:31:40.630Z,3.38
2023-04-20T04:33:42.372Z,2.00
2023-04-20T04:35:44.080Z,2.00
2023-04-20T04:37:46.080Z,2.28
2023-04-20T04:39:47.956Z,3.20
2023-04-20T04:41:49.738Z,3.30
2023-04-20T04:43:51.377Z,1.65
2023-04-20T04:45:53.499Z,5.85
2023-04-20T04:47:57.054Z,3.90
2023-04-20T04:49:59.776Z,6.85
2023-04-20T04:52:01.681Z,5.03
2023-04-20T04:54:03.459Z,5.57
2023-04-20T04:56:06.783Z,7.25
2023-04-20T04:58:08.488Z,6.28
2023-04-20T05:00:12.240Z,5.50
2023-04-20T05:02:13.948Z,6.07
2023-04-20T05:04:15.749Z,13.63
2023-04-20T05:06:17.436Z,5.88
2023-04-20T05:08:19.040Z,10.27
2023-04-20T05:10:21.299Z,14.07
2023-04-20T05:12:22.979Z,9.05
2023-04-20T05:14:24.647Z,12.45
2023-04-20T05:16:26.359Z,4.55
2023-04-20T05:18:28.115Z,5.32
2023-04-20T05:20:29.832Z,4.57
2023-04-20T05:22:31.623Z,6.50
2023-04-20T05:24:33.442Z,5.88
2023-04-20T05:26:35.471Z,3.90
2023-04-20T05:28:37.282Z,12.73
2023-04-20T05:30:38.968Z,12.88
2023-04-20T05:32:40.669Z,3.60
2023-04-20T05:34:42.293Z,7.28
2023-04-20T05:36:44.118Z,3.80
2023-04-20T05:38:46.202Z,6.57
2023-04-20T05:40:47.886Z,9.70
2023-04-20T05:42:49.575Z,8.82
2023-04-20T05:44:51.242Z,9.85
2023-04-20T05:46:52.888Z,13.23
2023-04-20T05:48:54.769Z,6.03
2023-04-20T05:50:56.522Z,9.65
2023-04-20T05:52:58.505Z,7.25
2023-04-20T05:55:00.575Z,15.23
2023-04-20T05:57:02.245Z,9.30
2023-04-20T05:59:04.562Z,14.68
2023-04-20T06:01:06.412Z,6.43
2023-04-20T06:03:08.144Z,6.97
2023-04-20T06:05:10.905Z,11.38
2023-04-20T06:07:12.969Z,4.20
2023-04-20T06:09:14.590Z,13.80
2023-04-20T06:11:16.493Z,6.28
2023-04-20T06:13:18.185Z,9.18
2023-04-20T06:15:19.883Z,6.28
2023-04-20T06:17:21.590Z,6.25
2023-04-20T06:19:23.297Z,9.35
2023-04-20T06:21:25.156Z,11.55
2023-04-20T06:23:27.209Z,4.47
2023-04-20T06:25:28.926Z,8.77
2023-04-20T06:27:30.922Z,4.15
2023-04-20T06:29:32.662Z,5.85
2023-04-20T06:31:34.358Z,3.40
2023-04-20T06:33:36.386Z,5.90
2023-04-20T06:35:39.359Z,6.63
2023-04-20T06:37:40.984Z,3.30
2023-04-20T06:39:42.568Z,6.68
2023-04-20T06:41:44.485Z,8.05
2023-04-20T06:43:46.194Z,4.50
2023-04-20T06:45:47.870Z,4.75
2023-04-20T06:47:49.607Z,3.70
2023-04-20T06:49:51.276Z,3.95
2023-04-20T06:51:52.918Z,3.65
2023-04-20T06:53:54.798Z,4.35
2023-04-20T06:55:56.948Z,2.42
2023-04-20T06:57:58.654Z,3.88
2023-04-20T07:00:01.169Z,3.53
2023-04-20T07:02:02.953Z,4.70
2023-04-20T07:04:04.821Z,2.45
2023-04-20T07:06:07.253Z,4.25
2023-04-20T07:08:09.445Z,3.03
2023-04-20T07:10:13.291Z,2.72
2023-04-20T07:12:15.783Z,3.83
2023-04-20T07:14:17.455Z,3.35
2023-04-20T07:16:19.168Z,2.92
2023-04-20T07:18:20.842Z,4.75
2023-04-20T07:20:22.547Z,5.47
2023-04-20T07:22:24.715Z,3.13
2023-04-20T07:24:26.377Z,2.40
2023-04-20T07:26:28.004Z,3.92
2023-04-20T07:28:29.606Z,4.63
2023-04-20T07:30:31.764Z,2.88
2023-04-20T07:32:34.734Z,4.38
2023-04-20T07:34:36.419Z,6.57
2023-04-20T07:36:39.052Z,4.85
2023-04-20T07:38:40.912Z,4.75
2023-04-20T07:40:42.565Z,4.18
2023-04-20T07:42:44.225Z,2.47
2023-04-20T07:44:45.909Z,3.47
2023-04-20T07:46:48.228Z,2.10
2023-04-20T07:48:49.928Z,2.03
2023-04-20T07:50:51.677Z,2.10
2023-04-20T07:52:53.381Z,2.55
2023-04-20T07:54:57.915Z,3.53
2023-04-20T07:56:59.949Z,2.33
2023-04-20T07:59:01.600Z,3.42
2023-04-20T08:01:03.406Z,2.08
2023-04-20T08:03:05.338Z,3.40
2023-04-20T08:05:08.815Z,3.00
2023-04-20T08:07:11.261Z,2.33
2023-04-20T08:09:13.442Z,1.98
2023-04-20T08:11:15.388Z,6.35
2023-04-20T08:13:17.006Z,1.80
2023-04-20T08:15:18.633Z,2.30
2023-04-20T08:17:20.570Z,2.92
2023-04-20T08:19:23.128Z,2.00
2023-04-20T08:21:25.986Z,2.55
2023-04-20T08:23:28.649Z,2.50
2023-04-20T08:25:32.320Z,2.47
2023-04-20T08:27:33.979Z,2.80
2023-04-20T08:29:36.579Z,2.85
2023-04-20T08:31:38.458Z,4.78
2023-04-20T08:33:40.238Z,3.67
2023-04-20T08:35:41.884Z,2.40
2023-04-20T08:37:43.980Z,2.53
2023-04-20T08:39:46.168Z,2.17
2023-04-20T08:41:48.178Z,4.82
2023-04-20T08:43:50.576Z,2.20
2023-04-20T08:45:55.129Z,2.33
2023-04-20T08:47:59.724Z,3.03
2023-04-20T08:50:03.980Z,2.50
2023-04-20T08:52:07.101Z,2.45
2023-04-20T08:54:10.134Z,3.35
2023-04-20T08:56:11.881Z,3.17
2023-04-20T08:58:13.509Z,2.00
2023-04-20T09:00:15.793Z,2.58
2023-04-20T09:02:17.924Z,2.17
2023-04-20T09:04:24.592Z,2.28
2023-04-20T09:06:26.991Z,3.75
2023-04-20T09:08:36.554Z,2.83
2023-04-20T09:10:44.879Z,2.42
2023-04-20T09:12:46.588Z,5.38
2023-04-20T09:14:49.048Z,3.10
2023-04-20T09:16:52.738Z,2.15
2023-04-20T09:18:58.547Z,2.10
2023-04-20T09:21:08.678Z,2.03
2023-04-20T09:23:13.916Z,2.55
2023-04-20T09:25:16.352Z,2.33
2023-04-20T09:27:19.384Z,3.28
2023-04-20T09:29:23.522Z,2.60
2023-04-20T09:31:25.547Z,2.30
2023-04-20T09:33:30.856Z,4.55
2023-04-20T09:35:32.559Z,2.00
2023-04-20T09:37:34.269Z,1.88
2023-04-20T09:39:39.279Z,2.83
2023-04-20T09:41:42.169Z,2.17
2023-04-20T09:43:45.566Z,2.60
2023-04-20T09:45:47.590Z,2.35
2023-04-20T09:47:50.033Z,2.33
2023-04-20T09:49:52.264Z,3.00
2023-04-20T09:51:54.373Z,1.80
2023-04-20T09:53:57.998Z,2.85
2023-04-20T09:56:01.233Z,2.03
2023-04-20T09:58:04.697Z,2.92
2023-04-20T10:00:07.913Z,1.85
2023-04-20T10:02:12.483Z,2.88
2023-04-20T10:04:14.786Z,2.00
2023-04-20T10:06:25.070Z,2.30
2023-04-20T10:08:26.765Z,2.45
2023-04-20T10:10:29.128Z,2.85
2023-04-20T10:12:30.925Z,2.17
2023-04-20T10:14:32.588Z,3.42
2023-04-20T10:16:34.353Z,2.45
2023-04-20T10:18:36.142Z,2.20
2023-04-20T10:20:38.558Z,2.28
2023-04-20T10:22:40.265Z,2.35
2023-04-20T10:24:41.971Z,1.60
2023-04-20T10:26:45.536Z,1.90
2023-04-20T10:28:47.337Z,2.85
2023-04-20T10:30:53.019Z,2.13
2023-04-20T10:33:08.306Z,2.17
2023-04-20T10:35:11.528Z,2.13
2023-04-20T10:37:14.125Z,2.53
2023-04-20T10:39:19.403Z,2.38
2023-04-20T10:41:21.721Z,2.85
2023-04-20T10:43:23.478Z,1.80
2023-04-20T10:45:43.312Z,1.95
2023-04-20T10:47:45.465Z,2.05
2023-04-20T10:49:47.236Z,1.88
2023-04-20T10:51:50.761Z,1.92
2023-04-20T10:54:08.657Z,4.75
2023-04-20T10:56:10.899Z,2.50
2023-04-20T10:58:25.298Z,2.20
2023-04-20T11:00:28.752Z,2.42
2023-04-20T11:02:30.773Z,1.85
2023-04-20T11:04:33.259Z,2.75
2023-04-20T11:06:35.711Z,2.15
2023-04-20T11:08:41.717Z,1.90
2023-04-20T11:10:43.733Z,2.10
2023-04-20T11:12:45.525Z,2.00
2023-04-20T11:15:02.888Z,1.80
2023-04-20T11:17:05.765Z,1.70
2023-04-20T11:19:08.342Z,1.80
2023-04-20T11:21:09.993Z,2.67
2023-04-20T11:23:11.657Z,2.03
2023-04-20T11:25:13.474Z,1.80
2023-04-20T11:27:24.787Z,1.70
2023-04-20T11:29:35.339Z,1.60
2023-04-20T11:31:37.464Z,2.17
2023-04-20T11:33:39.284Z,1.77
2023-04-20T11:35:43.058Z,1.90
2023-04-20T11:37:47.992Z,3.03
2023-04-20T11:40:00.074Z,1.80
2023-04-20T11:42:02.259Z,3.05
2023-04-20T11:44:05.956Z,2.13
2023-04-20T11:46:16.728Z,1.92
2023-04-20T11:48:19.622Z,2.15
2023-04-20T11:50:22.195Z,2.53
2023-04-20T11:52:23.834Z,2.30
2023-04-20T11:54:27.226Z,2.08
2023-04-20T11:56:28.838Z,1.95
2023-04-20T11:58:30.581Z,2.00
2023-04-20T12:00:32.249Z,2.13
2023-04-20T12:02:34.015Z,1.70
2023-04-20T12:04:36.024Z,2.97
2023-04-20T12:06:38.096Z,1.65
2023-04-20T12:08:39.730Z,2.08
2023-04-20T12:10:41.608Z,2.70
2023-04-20T12:12:43.367Z,1.90
2023-04-20T12:14:45.164Z,1.80
2023-04-20T12:16:46.894Z,1.80
2023-04-20T12:18:48.804Z,2.10
2023-04-20T12:20:51.348Z,3.92
2023-04-20T12:22:53.052Z,1.75
2023-04-20T12:24:54.689Z,1.70
2023-04-20T12:26:59.142Z,1.90
2023-04-20T12:29:00.828Z,2.00
2023-04-20T12:31:02.538Z,1.83
2023-04-20T12:33:04.773Z,2.03
2023-04-20T12:35:08.419Z,1.83
2023-04-20T12:37:10.186Z,1.98
2023-04-20T12:39:11.939Z,3.85
2023-04-20T12:41:15.173Z,2.15
2023-04-20T12:43:16.853Z,2.42
2023-04-20T12:45:18.654Z,2.55
2023-04-20T12:47:20.574Z,1.88
2023-04-20T12:49:22.310Z,1.80
2023-04-20T12:51:24.183Z,2.35
2023-04-20T12:53:25.940Z,1.75
2023-04-20T12:55:27.720Z,3.25
2023-04-20T12:57:29.412Z,2.78
2023-04-20T12:59:31.038Z,2.15
2023-04-20T13:01:32.838Z,1.92
2023-04-20T13:03:34.720Z,1.98
2023-04-20T13:05:36.431Z,1.95
2023-04-20T13:07:38.065Z,2.40
2023-04-20T13:09:39.725Z,1.60
2023-04-20T13:11:41.381Z,1.65
2023-04-20T13:13:43.280Z,1.70
2023-04-20T13:15:44.953Z,3.90
2023-04-20T13:17:46.786Z,1.85
2023-04-20T13:19:49.787Z,1.88
2023-04-20T13:21:51.439Z,1.67
2023-04-20T13:23:54.781Z,1.63
2023-04-20T13:26:00.539Z,1.75
2023-04-20T13:28:03.271Z,1.65
2023-04-20T13:30:06.203Z,1.80
2023-04-20T13:32:07.998Z,1.73
2023-04-20T13:34:09.802Z,2.85
2023-04-20T13:36:11.516Z,1.73
2023-04-20T13:38:13.234Z,2.00
2023-04-20T13:40:14.951Z,1.92
2023-04-20T13:42:16.630Z,1.50
2023-04-20T13:44:18.441Z,1.90
2023-04-20T13:46:20.828Z,2.17
2023-04-20T13:48:22.785Z,1.67
2023-04-20T13:50:24.695Z,2.65
2023-04-20T13:52:26.461Z,1.90
2023-04-20T13:54:28.202Z,1.58
2023-04-20T13:56:29.904Z,1.63
2023-04-20T13:58:31.591Z,1.60
2023-04-20T14:00:34.655Z,1.50
2023-04-20T14:02:36.719Z,1.30
2023-04-20T14:04:38.487Z,1.67
2023-04-20T14:06:40.454Z,1.67
2023-04-20T14:08:42.104Z,1.60
2023-04-20T14:10:43.812Z,2.08
2023-04-20T14:12:45.870Z,2.55
2023-04-20T14:14:48.370Z,1.58
2023-04-20T14:16:51.100Z,1.60
2023-04-20T14:18:52.784Z,1.70
2023-04-20T14:20:54.637Z,3.05
2023-04-20T14:22:56.289Z,1.33
2023-04-20T14:24:57.926Z,1.30
2023-04-20T14:27:00.304Z,1.30
2023-04-20T14:29:02.001Z,1.17
2023-04-20T14:31:03.834Z,1.58
2023-04-20T14:33:06.518Z,1.67
2023-04-20T14:35:09.213Z,1.50
2023-04-20T14:37:10.897Z,1.50
2023-04-20T14:39:12.625Z,1.92
2023-04-20T14:41:16.005Z,1.63
2023-04-20T14:43:17.670Z,1.83
2023-04-20T14:45:19.437Z,1.38
2023-04-20T14:47:21.252Z,1.40
2023-04-20T14:49:23.418Z,1.23
2023-04-20T14:51:25.059Z,1.55
2023-04-20T14:53:26.798Z,1.65
2023-04-20T14:55:28.768Z,1.30
2023-04-20T14:57:31.217Z,1.67
2023-04-20T14:59:33.899Z,1.38
2023-04-20T15:01:35.841Z,1.50
2023-04-20T15:03:37.794Z,1.13
2023-04-20T15:05:39.752Z,1.17
2023-04-20T15:07:41.461Z,1.60
2023-04-20T15:09:43.276Z,1.40
2023-04-20T15:11:44.926Z,1.40
2023-04-20T15:13:47.007Z,1.60
2023-04-20T15:15:50.053Z,2.78
2023-04-20T15:17:53.843Z,1.80
2023-04-20T15:19:55.725Z,2.35
2023-04-20T15:21:57.345Z,1.33
2023-04-20T15:23:59.094Z,1.30
2023-04-20T15:26:00.745Z,1.77
2023-04-20T15:28:02.412Z,1.40
2023-04-20T15:30:05.717Z,1.50
2023-04-20T15:32:07.708Z,3.22
2023-04-20T15:34:11.243Z,1.55
2023-04-20T15:36:12.970Z,7.63
2023-04-20T15:38:14.591Z,18.50
2023-04-20T15:40:17.792Z,13.27
2023-04-20T15:42:19.484Z,14.15
2023-04-20T15:44:21.187Z,14.05
2023-04-20T15:46:25.336Z,10.40
2023-04-20T15:48:27.262Z,6.90
2023-04-20T15:50:28.928Z,11.10
2023-04-20T15:52:31.725Z,5.65
2023-04-20T15:54:33.763Z,9.25
2023-04-20T15:56:35.371Z,12.05
2023-04-20T15:58:37.098Z,10.93
2023-04-20T16:00:41.661Z,4.95
2023-04-20T16:02:43.689Z,7.95
2023-04-20T16:04:46.069Z,3.72
2023-04-20T16:06:47.989Z,3.63
2023-04-20T16:08:53.072Z,8.02
2023-04-20T16:10:54.977Z,5.90
2023-04-20T16:12:56.988Z,16.77
2023-04-20T16:14:58.619Z,15.07
2023-04-20T16:17:03.395Z,14.32
2023-04-20T16:19:05.066Z,12.60
2023-04-20T16:21:07.101Z,11.27
2023-04-20T16:23:08.850Z,9.82
2023-04-20T16:25:12.357Z,6.22
2023-04-20T16:27:14.356Z,8.60
2023-04-20T16:29:16.143Z,8.20
2023-04-20T16:31:18.041Z,8.02
2023-04-20T16:33:20.310Z,9.55
2023-04-20T16:35:22.112Z,12.70
2023-04-20T16:37:24.466Z,11.80
2023-04-20T16:39:26.082Z,19.05
2023-04-20T16:41:27.781Z,16.15
2023-04-20T16:43:29.442Z,16.45
2023-04-20T16:45:32.553Z,15.93
2023-04-20T16:47:34.278Z,18.30
2023-04-20T16:49:36.236Z,14.35
2023-04-20T16:51:38.006Z,11.57
2023-04-20T16:53:39.685Z,12.82
2023-04-20T16:55:41.440Z,23.08
2023-04-20T16:57:43.137Z,16.73
2023-04-20T16:59:45.881Z,13.63
2023-04-20T17:01:49.124Z,17.05
2023-04-20T17:03:51.420Z,16.73
2023-04-20T17:05:53.212Z,16.17
2023-04-20T17:07:54.853Z,12.40
2023-04-20T17:09:56.511Z,8.98
2023-04-20T17:11:59.338Z,11.82
2023-04-20T17:14:01.502Z,10.23
2023-04-20T17:16:03.285Z,11.65
2023-04-20T17:18:06.715Z,9.45
2023-04-20T17:20:09.278Z,9.68
2023-04-20T17:22:11.051Z,12.00
2023-04-20T17:24:13.157Z,10.70
2023-04-20T17:26:14.828Z,13.13
2023-04-20T17:28:16.553Z,8.10
2023-04-20T17:30:18.588Z,10.05
2023-04-20T17:32:20.347Z,7.97
2023-04-20T17:34:22.081Z,8.90
2023-04-20T17:36:23.723Z,8.10
2023-04-20T17:38:25.509Z,5.85
2023-04-20T17:40:27.262Z,11.30
2023-04-20T17:42:29.365Z,8.68
2023-04-20T17:44:31.029Z,11.15
2023-04-20T17:46:32.813Z,11.40
2023-04-20T17:48:34.541Z,12.35
2023-04-20T17:50:36.258Z,14.65
2023-04-20T17:52:37.962Z,9.32
2023-04-20T17:54:39.601Z,9.13
2023-04-20T17:56:41.265Z,10.60
2023-04-20T17:58:42.959Z,5.78
2023-04-20T18:00:45.224Z,5.82
2023-04-20T18:02:47.084Z,9.07
2023-04-20T18:04:48.889Z,6.47
2023-04-20T18:06:51.415Z,7.97
2023-04-20T18:08:53.866Z,11.07
2023-04-20T18:10:55.605Z,9.10
2023-04-20T18:12:57.244Z,9.13
2023-04-20T18:14:59.034Z,4.35
2023-04-20T18:17:00.739Z,6.55
2023-04-20T18:19:02.425Z,5.53
2023-04-20T18:21:04.352Z,5.15
2023-04-20T18:23:06.274Z,9.02
2023-04-20T18:25:08.370Z,6.30
2023-04-20T18:27:10.020Z,6.97
2023-04-20T18:29:12.103Z,7.13
2023-04-20T18:31:13.913Z,7.68
2023-04-20T18:33:15.583Z,4.47
2023-04-20T18:35:17.286Z,7.07
2023-04-20T18:37:19.041Z,10.88
2023-04-20T18:39:20.682Z,6.63
2023-04-20T18:41:23.402Z,10.05
2023-04-20T18:43:25.269Z,5.82
2023-04-20T18:45:28.565Z,5.22
2023-04-20T18:47:30.588Z,10.73
2023-04-20T18:49:32.329Z,4.25
2023-04-20T18:51:34.228Z,6.88
2023-04-20T18:53:35.961Z,6.10
2023-04-20T18:55:37.961Z,6.95
2023-04-20T18:57:40.285Z,4.50
2023-04-20T18:59:41.920Z,4.90
2023-04-20T19:01:43.561Z,4.43
2023-04-20T19:03:47.880Z,4.43
2023-04-20T19:05:50.011Z,5.40
2023-04-20T19:07:51.684Z,5.53
2023-04-20T19:09:53.419Z,3.47
2023-04-20T19:11:55.152Z,6.18
2023-04-20T19:13:56.920Z,3.38
2023-04-20T19:15:58.680Z,3.85
2023-04-20T19:18:00.575Z,9.35
2023-04-20T19:20:03.884Z,6.35
2023-04-20T19:22:06.004Z,3.55
2023-04-20T19:24:07.746Z,7.97
2023-04-20T19:26:09.554Z,5.43
2023-04-20T19:28:12.060Z,5.97
2023-04-20T19:30:13.936Z,11.38
2023-04-20T19:32:15.655Z,4.40
2023-04-20T19:34:17.637Z,3.22
2023-04-20T19:36:20.572Z,4.25
2023-04-20T19:38:24.432Z,3.00
2023-04-20T19:40:27.044Z,3.70
2023-04-20T19:42:28.708Z,4.30
2023-04-20T19:44:30.891Z,5.75
2023-04-20T19:46:33.825Z,3.65
2023-04-20T19:48:36.806Z,3.92
2023-04-20T19:50:38.491Z,3.30
2023-04-20T19:52:40.318Z,3.65
2023-04-20T19:54:42.260Z,4.47
2023-04-20T19:56:44.187Z,3.33
2023-04-20T19:58:45.863Z,4.43
2023-04-20T20:00:47.741Z,2.80
2023-04-20T20:02:49.555Z,2.90
2023-04-20T20:04:52.013Z,3.42
2023-04-20T20:06:53.720Z,5.78
2023-04-20T20:08:55.382Z,2.88
2023-04-20T20:10:57.056Z,3.10
2023-04-20T20:12:58.731Z,3.13
2023-04-20T20:15:00.858Z,6.68
2023-04-20T20:17:02.515Z,4.10
2023-04-20T20:19:04.248Z,2.92
2023-04-20T20:21:05.919Z,6.15
2023-04-20T20:23:07.765Z,9.75
2023-04-20T20:25:09.690Z,3.17
2023-04-20T20:27:11.854Z,4.75
2023-04-20T20:29:13.468Z,13.02
2023-04-20T20:31:15.433Z,10.07
2023-04-20T20:33:17.040Z,21.95
2023-04-20T20:35:18.773Z,10.65
2023-04-20T20:37:21.249Z,11.38
2023-04-20T20:39:23.162Z,10.90
2023-04-20T20:41:24.802Z,10.00
2023-04-20T20:43:28.418Z,8.45
2023-04-20T20:45:30.941Z,6.18
2023-04-20T20:47:35.919Z,7.00
2023-04-20T20:49:37.587Z,11.30
2023-04-20T20:51:39.351Z,4.93
2023-04-20T20:53:41.099Z,12.25
2023-04-20T20:55:42.924Z,4.97
2023-04-20T20:57:45.881Z,8.70
2023-04-20T20:59:47.506Z,8.75
2023-04-20T21:01:49.228Z,15.10
2023-04-20T21:03:50.991Z,5.57
2023-04-20T21:05:52.777Z,6.03
2023-04-20T21:07:54.484Z,6.25
2023-04-20T21:09:56.143Z,6.70
2023-04-20T21:11:57.900Z,6.03
2023-04-20T21:14:01.768Z,7.57
2023-04-20T21:16:03.829Z,7.60
2023-04-20T21:18:05.605Z,7.93
2023-04-20T21:20:09.125Z,9.82
2023-04-20T21:22:10.867Z,4.25
2023-04-20T21:24:12.585Z,4.20
2023-04-20T21:26:14.281Z,3.13
2023-04-20T21:28:15.886Z,3.72
2023-04-20T21:30:17.830Z,5.20
2023-04-20T21:32:19.704Z,6.88
2023-04-20T21:34:21.382Z,6.60
2023-04-20T21:36:23.160Z,8.00
2023-04-20T21:38:24.800Z,8.38
2023-04-20T21:40:26.887Z,2.60
2023-04-20T21:42:28.577Z,6.32
2023-04-20T21:44:30.219Z,6.13
2023-04-20T21:46:31.976Z,6.07
2023-04-20T21:48:33.603Z,9.57
2023-04-20T21:50:37.376Z,5.85
2023-04-20T21:52:39.117Z,4.72
2023-04-20T21:54:41.836Z,4.03
2023-04-20T21:56:43.476Z,4.78
2023-04-20T21:58:45.181Z,7.05
2023-04-20T22:00:46.864Z,4.45
2023-04-20T22:02:50.198Z,4.05
2023-04-20T22:04:52.404Z,4.65
2023-04-20T22:06:55.423Z,4.95
2023-04-20T22:08:57.956Z,7.18
2023-04-20T22:10:59.552Z,3.85
2023-04-20T22:13:01.164Z,3.15
2023-04-20T22:15:03.011Z,3.83
2023-04-20T22:17:04.989Z,5.57
2023-04-20T22:19:07.143Z,6.05
2023-04-20T22:21:08.775Z,4.90
2023-04-20T22:23:10.505Z,4.43
2023-04-20T22:25:12.138Z,4.60
2023-04-20T22:27:13.765Z,3.13
2023-04-20T22:29:15.620Z,4.82
2023-04-20T22:31:17.277Z,7.43
2023-04-20T22:33:19.094Z,3.50
2023-04-20T22:35:20.873Z,3.65
2023-04-20T22:37:22.587Z,6.68
2023-04-20T22:39:24.677Z,4.43
2023-04-20T22:41:26.321Z,6.22
2023-04-20T22:43:27.958Z,4.78
2023-04-20T22:45:29.592Z,2.55
2023-04-20T22:47:31.416Z,5.25
2023-04-20T22:49:33.083Z,3.67
2023-04-20T22:51:34.828Z,3.65
2023-04-20T22:53:36.486Z,4.00
2023-04-20T22:55:38.181Z,2.30
2023-04-20T22:57:39.897Z,2.13
2023-04-20T22:59:41.978Z,2.88
2023-04-20T23:01:43.695Z,7.00
2023-04-20T23:03:45.376Z,2.80
2023-04-20T23:05:47.121Z,4.15
2023-04-20T23:07:49.214Z,2.20
2023-04-20T23:09:50.909Z,3.20
2023-04-20T23:11:53.796Z,3.80
2023-04-20T23:13:55.829Z,2.83
2023-04-20T23:15:57.557Z,4.30
2023-04-20T23:17:59.440Z,2.42
2023-04-20T23:20:01.059Z,4.97
2023-04-20T23:22:03.273Z,8.85
2023-04-20T23:24:05.064Z,5.65
2023-04-20T23:26:06.709Z,2.42
2023-04-20T23:28:08.324Z,3.45
2023-04-20T23:30:10.391Z,2.80
2023-04-20T23:32:12.190Z,2.90
2023-04-20T23:34:13.873Z,3.33
2023-04-20T23:36:15.870Z,4.00
2023-04-20T23:38:18.216Z,2.20
2023-04-20T23:40:19.949Z,2.60
2023-04-20T23:42:21.597Z,2.45
2023-04-20T23:44:23.285Z,2.40
2023-04-20T23:46:25.031Z,2.78
2023-04-20T23:48:26.722Z,4.28
2023-04-20T23:50:28.437Z,4.25
2023-04-20T23:52:31.263Z,4.55
2023-04-20T23:54:33.482Z,2.15
2023-04-20T23:56:35.278Z,2.30
2023-04-20T23:58:37.979Z,2.08
